createdAt,value
2019-03-16T01:05:15.584Z,75556.87
2019-03-16T01:07:55.943Z,75554.88
2019-03-16T01:10:36.648Z,75557.86
2019-03-16T01:13:17.099Z,75553.89
2019-03-16T01:15:58.033Z,75551.90
2019-03-16T01:18:38.285Z,75546.93
2019-03-16T01:21:19.383Z,75539.98
2019-03-16T01:24:00.140Z,75548.92
2019-03-16T01:26:40.281Z,75548.92
2019-03-16T01:29:21.039Z,75542.96
2019-03-16T01:32:01.459Z,75537.00
2019-03-16T01:34:43.987Z,75534.02
2019-03-16T01:37:22.942Z,75529.05
2019-03-16T01:40:04.005Z,75541.97
2019-03-16T01:42:44.884Z,75539.98
2019-03-16T01:45:25.856Z,75531.03
2019-03-16T01:48:05.845Z,75507.19
2019-03-16T01:50:47.019Z,75496.27
2019-03-16T01:53:27.981Z,75476.39
2019-03-16T01:56:08.828Z,75433.67
2019-03-16T01:58:49.005Z,75387.97
2019-03-16T02:01:29.860Z,75359.16
2019-03-16T02:04:09.855Z,75350.22
2019-03-16T02:06:50.351Z,75327.38
2019-03-16T02:09:30.922Z,75308.50
2019-03-16T02:12:11.626Z,75309.48
2019-03-16T02:14:54.443Z,75283.66
2019-03-16T02:17:34.879Z,75273.72
2019-03-16T02:20:16.066Z,75239.95
2019-03-16T02:22:57.344Z,75229.02
2019-03-16T02:25:37.620Z,75212.13
2019-03-16T02:28:18.976Z,75213.13
2019-03-16T02:31:00.116Z,75224.05
2019-03-16T02:33:40.758Z,75224.05
2019-03-16T02:36:20.861Z,75232.00
2019-03-16T02:39:01.757Z,75235.97
2019-03-16T02:41:42.828Z,75240.94
2019-03-16T02:44:23.130Z,75305.52
2019-03-16T02:47:03.957Z,75335.31
2019-03-16T02:49:44.539Z,75330.35
2019-03-16T02:52:25.227Z,75377.05
2019-03-16T02:55:05.470Z,75364.13
2019-03-16T02:57:46.281Z,75332.34
2019-03-16T03:00:26.962Z,75333.33
2019-03-16T03:03:07.162Z,75326.38
2019-03-16T03:05:47.904Z,75341.28
2019-03-16T03:08:28.755Z,75325.38
2019-03-16T03:11:09.418Z,75344.27
2019-03-16T03:13:49.899Z,75348.23
2019-03-16T03:16:30.384Z,75299.55
2019-03-16T03:19:10.985Z,75279.69
2019-03-16T03:21:51.520Z,75238.95
2019-03-16T03:24:31.864Z,75197.23
2019-03-16T03:27:12.464Z,75144.58
2019-03-16T03:29:56.842Z,75157.49
2019-03-16T03:32:33.958Z,75114.78
2019-03-16T03:35:14.496Z,75110.80
2019-03-16T03:37:55.107Z,75105.84
2019-03-16T03:40:35.500Z,75074.05
2019-03-16T03:43:15.878Z,75092.92
2019-03-16T03:45:57.074Z,75115.77
2019-03-16T03:48:37.793Z,75146.56
2019-03-16T03:51:18.944Z,75102.86
2019-03-16T03:53:59.822Z,75104.84
2019-03-16T03:56:40.937Z,75111.80
2019-03-16T03:59:21.867Z,75136.63
2019-03-16T04:02:02.884Z,75190.27
2019-03-16T04:04:43.876Z,75268.76
2019-03-16T04:07:24.371Z,75276.70
2019-03-16T04:10:05.469Z,75289.62
2019-03-16T04:12:47.127Z,75261.80
2019-03-16T04:15:28.408Z,75246.90
2019-03-16T05:15:04.003Z,75156.50
2019-03-16T05:17:38.758Z,75138.62
2019-03-16T05:20:08.062Z,75117.76
2019-03-16T05:22:37.735Z,75094.91
2019-03-16T05:25:07.078Z,75087.95
2019-03-16T05:27:36.648Z,75056.16
2019-03-16T05:32:33.605Z,75012.45
2019-03-16T05:35:03.930Z,74978.68
2019-03-16T05:37:44.775Z,74953.84
2019-03-16T05:40:25.370Z,74931.00
2019-03-16T05:43:05.735Z,74914.11
2019-03-16T05:45:45.906Z,74912.13
2019-03-16T05:48:27.130Z,74929.02
2019-03-16T05:51:07.534Z,74931.00
2019-03-16T05:53:47.889Z,74928.02
2019-03-16T05:56:29.112Z,74882.33
2019-03-16T05:59:10.527Z,74869.41
2019-03-16T06:01:51.510Z,74865.44
2019-03-16T06:04:32.224Z,74868.42
2019-03-16T06:07:12.601Z,74881.33
2019-03-16T06:09:52.849Z,74892.26
2019-03-16T06:12:33.934Z,74902.19
2019-03-16T06:15:17.677Z,74920.07
2019-03-16T06:17:58.352Z,74933.98
2019-03-16T06:20:40.830Z,74962.78
2019-03-16T06:23:23.358Z,74941.92
2019-03-16T06:26:03.538Z,74917.09
2019-03-16T06:28:43.754Z,74902.19
2019-03-16T06:31:24.728Z,74875.38
2019-03-16T06:34:05.077Z,74866.43
2019-03-16T06:36:45.685Z,74846.56
2019-03-16T06:39:26.652Z,74814.78
2019-03-16T06:42:07.373Z,74785.97
2019-03-16T06:44:48.313Z,74782.98
2019-03-16T06:47:29.153Z,74772.06
2019-03-16T06:50:09.514Z,74796.90
2019-03-16T06:52:50.802Z,74772.06
2019-03-16T06:55:32.167Z,74743.26
2019-03-16T06:58:13.054Z,74753.19
2019-03-16T07:00:53.557Z,74690.61
2019-03-16T07:03:34.315Z,74720.41
2019-03-16T07:06:15.398Z,74638.96
2019-03-16T07:08:55.927Z,74625.05
2019-03-16T07:11:36.453Z,74578.38
2019-03-16T07:14:17.050Z,74557.52
2019-03-16T07:17:02.229Z,74537.64
2019-03-16T07:19:38.820Z,74539.63
2019-03-16T07:22:19.887Z,74546.59
2019-03-16T07:25:01.054Z,74538.64
2019-03-16T07:27:42.048Z,74532.68
2019-03-16T07:30:22.954Z,74540.63
2019-03-16T07:33:03.554Z,74554.53
2019-03-16T07:35:44.008Z,74607.17
2019-03-16T07:38:24.567Z,74583.34
2019-03-16T07:41:05.312Z,74572.41
2019-03-16T07:43:46.251Z,74559.50
2019-03-16T07:46:26.900Z,74560.49
2019-03-16T07:49:07.507Z,74532.68
2019-03-16T07:51:48.135Z,74488.98
2019-03-16T07:54:31.055Z,74478.05
2019-03-16T07:57:08.725Z,74464.14
2019-03-16T07:59:49.144Z,74493.94
2019-03-16T08:02:29.892Z,74475.07
2019-03-16T08:05:17.940Z,74506.86
2019-03-16T08:07:51.609Z,74485.00
2019-03-16T08:10:31.990Z,74449.25
2019-03-16T08:13:12.460Z,74459.18
2019-03-16T08:15:53.538Z,74430.38
2019-03-16T08:18:34.017Z,74420.44
2019-03-16T08:21:14.609Z,74388.66
2019-03-16T08:23:55.144Z,74440.30
2019-03-16T08:26:36.087Z,74413.48
2019-03-16T08:29:16.870Z,74447.26
2019-03-16T08:31:57.796Z,74479.05
2019-03-16T08:34:38.330Z,74468.12
2019-03-16T08:37:18.969Z,74451.23
2019-03-16T08:40:00.555Z,74453.22
2019-03-16T08:42:40.874Z,74456.20
2019-03-16T08:45:21.489Z,74470.11
2019-03-16T08:48:02.655Z,74466.13
2019-03-16T08:50:43.237Z,74469.11
2019-03-16T08:53:23.950Z,74436.34
2019-03-16T08:56:04.029Z,74447.26
2019-03-16T08:58:44.705Z,74438.32
2019-03-16T09:01:25.449Z,74457.19
2019-03-16T09:04:05.496Z,74428.39
2019-03-16T09:06:47.011Z,74429.38
2019-03-16T09:09:27.227Z,74424.41
2019-03-16T09:12:07.974Z,74434.34
2019-03-16T09:14:48.921Z,74408.52
2019-03-16T09:17:29.769Z,74398.59
2019-03-16T09:20:10.816Z,74382.70
2019-03-16T09:22:51.391Z,74388.66
2019-03-16T09:25:32.620Z,74398.59
2019-03-16T09:28:18.726Z,74386.67
2019-03-16T09:30:56.522Z,74383.69
2019-03-16T09:33:36.280Z,74396.61
2019-03-16T09:36:16.762Z,74386.67
2019-03-16T09:38:57.179Z,74396.61
2019-03-16T09:41:38.197Z,74396.61
2019-03-16T09:44:18.999Z,74389.66
2019-03-16T09:46:59.861Z,74435.34
2019-03-16T09:49:40.706Z,74421.44
2019-03-16T09:52:21.477Z,74428.39
2019-03-16T09:55:01.969Z,74421.44
2019-03-16T09:57:42.516Z,74426.41
2019-03-16T10:00:23.089Z,74443.28
2019-03-16T10:03:03.484Z,74447.26
2019-03-16T10:05:43.832Z,74433.36
2019-03-16T10:08:24.682Z,74420.44
2019-03-16T10:11:04.809Z,74425.41
2019-03-16T10:13:49.148Z,74414.48
2019-03-16T10:16:30.167Z,74437.33
2019-03-16T10:21:53.360Z,74441.30
2019-03-16T10:24:34.243Z,74445.27
2019-03-16T10:27:15.095Z,74460.17
2019-03-16T10:29:55.849Z,74470.11
2019-03-16T10:32:36.806Z,74477.06
2019-03-16T10:35:16.966Z,74479.05
2019-03-16T10:37:57.339Z,74487.98
2019-03-16T10:40:38.118Z,74486.00
2019-03-16T10:43:18.755Z,74502.88
2019-03-16T10:45:58.986Z,74496.92
2019-03-16T10:48:39.742Z,74515.80
2019-03-16T10:51:20.199Z,74519.77
2019-03-16T10:54:00.503Z,74520.77
2019-03-16T10:56:41.542Z,74538.64
2019-03-16T10:59:22.117Z,74542.61
2019-03-16T11:02:02.198Z,74549.56
2019-03-16T11:04:42.760Z,74563.47
2019-03-16T11:07:23.981Z,74574.40
2019-03-16T11:10:04.524Z,74585.33
2019-03-16T11:12:44.914Z,74593.27
2019-03-16T11:15:25.448Z,74590.29
2019-03-16T11:18:05.427Z,74596.25
2019-03-16T11:20:46.006Z,74604.20
2019-03-16T11:23:26.693Z,74611.15
2019-03-16T11:26:06.736Z,74617.11
2019-03-16T11:28:47.306Z,74622.08
2019-03-16T11:31:28.089Z,74636.97
2019-03-16T11:34:08.599Z,74633.99
2019-03-16T11:36:49.878Z,74631.02
2019-03-16T11:39:32.062Z,74633.00
2019-03-16T11:42:11.785Z,74642.94
2019-03-16T11:44:52.004Z,74653.86
2019-03-16T11:47:32.225Z,74658.83
2019-03-16T11:50:12.635Z,74671.73
2019-03-16T11:59:36.853Z,74705.52
2019-03-16T12:02:17.239Z,74714.45
2019-03-16T12:04:58.853Z,74714.45
2019-03-16T12:07:39.786Z,74717.43
2019-03-16T13:13:24.986Z,75051.20
2019-03-16T13:16:06.075Z,75057.16
2019-03-16T13:18:49.592Z,75061.13
2019-03-16T13:21:30.920Z,75070.08
2019-03-16T13:24:12.052Z,75078.02
2019-03-16T15:13:49.031Z,75257.83
2019-03-16T15:16:30.379Z,75251.87
2019-03-16T15:19:11.299Z,75257.83
2019-03-16T15:21:52.919Z,75267.77
2019-03-16T15:24:33.699Z,75263.79
2019-03-16T15:40:57.525Z,75267.77
2019-03-16T15:43:37.977Z,75258.83
2019-03-16T15:46:18.508Z,75259.81
2019-03-16T15:48:59.151Z,75262.80
2019-03-16T15:51:39.707Z,75257.83
2019-03-16T15:54:20.077Z,75251.87
2019-03-16T15:57:00.972Z,75245.91
2019-03-16T15:59:41.722Z,75244.91
2019-03-16T16:02:22.503Z,75243.92
2019-03-16T16:05:03.104Z,75237.96
2019-03-16T16:07:43.883Z,75235.97
2019-03-16T16:10:24.602Z,75233.98
2019-03-16T16:13:05.143Z,75230.02
2019-03-16T16:15:46.029Z,75228.02
2019-03-16T16:18:26.622Z,75226.04
2019-03-16T16:21:07.192Z,75228.02
2019-03-16T16:23:48.265Z,75234.98
2019-03-16T16:26:30.090Z,75236.97
2019-03-16T16:29:10.464Z,75237.96
2019-03-16T16:31:50.917Z,75244.91
2019-03-16T16:34:31.336Z,75251.87
2019-03-16T16:37:12.203Z,75252.86
2019-03-16T16:39:52.902Z,75254.84
2019-03-16T16:42:34.524Z,75254.84
2019-03-16T16:45:23.189Z,75267.77
2019-03-16T16:48:07.323Z,75265.78
2019-03-16T16:50:53.795Z,75268.76
2019-03-16T16:53:34.877Z,75268.76
2019-03-16T16:56:15.493Z,75270.74
2019-03-16T16:58:55.365Z,75274.72
2019-03-16T17:01:36.282Z,75276.70
2019-03-16T17:04:17.040Z,75276.70
2019-03-16T17:06:58.202Z,75277.70
2019-03-16T17:09:38.783Z,75279.69
2019-03-16T17:12:20.178Z,75286.64
2019-03-16T17:15:01.409Z,75287.63
2019-03-16T17:17:42.731Z,75286.64
2019-03-16T17:20:23.685Z,75292.59
2019-03-16T17:23:04.612Z,75293.59
2019-03-16T17:25:45.623Z,75293.59
2019-03-16T17:28:27.158Z,75297.56
2019-03-16T17:31:08.846Z,75300.55
2019-03-16T17:53:02.937Z,75325.38
2019-03-16T17:55:43.887Z,75332.34
2019-03-16T17:58:24.531Z,75333.33
2019-03-16T18:01:05.742Z,75321.41
2019-03-16T18:03:48.690Z,75319.42
2019-03-16T18:06:29.399Z,75313.46
2019-03-16T18:09:09.695Z,75319.42
2019-03-16T18:11:50.573Z,75280.68
2019-03-16T18:14:31.248Z,75235.97
2019-03-16T18:17:11.928Z,75220.08
2019-03-16T18:19:52.316Z,75191.27
2019-03-16T18:22:32.592Z,75195.24
2019-03-16T18:25:12.681Z,75177.36
2019-03-16T18:27:53.115Z,75189.28
2019-03-16T18:30:33.852Z,75182.33
2019-03-16T18:33:14.022Z,75193.25
2019-03-16T18:35:54.780Z,75211.14
2019-03-16T18:38:35.459Z,75237.96
2019-03-16T18:41:16.368Z,75253.86
2019-03-16T18:43:57.669Z,75270.74
2019-03-16T18:46:38.314Z,75272.73
2019-03-16T18:49:19.313Z,75280.68
2019-03-16T18:52:00.546Z,75286.64
2019-03-16T18:54:41.805Z,75297.56
2019-03-16T18:57:23.096Z,75302.53
2019-03-16T19:00:04.388Z,75303.53
2019-03-16T20:52:25.844Z,75330.35
2019-03-16T20:55:08.438Z,75337.30
2019-03-16T20:57:49.400Z,75334.33
2019-03-16T21:00:31.493Z,75340.28
2019-03-16T21:03:16.227Z,75327.38
